Jonesboro, AR

11:52 AM CDT on March 30, 2017 (GMT -0500)
Jonesboro Municipal | | Change Station

Elev 259 ft 35.83 °N, 90.65 °W | Updated 10 minutes ago

Overcast
Overcast
66 °F
Feels Like 66 °F
N
23
Wind Variable Wind from WSW
Gusts 30 mph

Today
High -- | Low -- °F
--% Chance of Precip.
Yesterday
High -- | Low -- °F
Precip. -- in
Pressure 29.61 in
Visibility 10.0 miles
Clouds Few 2200 ft
Mostly Cloudy 2900 ft
Overcast 4100 ft
Dew Point 60 °F
Humidity 81%
Rainfall 0.03 in
Snow Depth Not available.
6:51 AM 7:22 PM
Waxing Crescent, 9% visible
SPECI KJBR 301642Z AUTO 24020G26KT 10SM FEW022 BKN029 OVC041 19/16 A2961 RMK AO2 PK WND 22029/1600 RAE37 P0001 T01890156
Pressure 29.61 in
Visibility 10.0 miles
Clouds Few 2200 ft
Mostly Cloudy 2900 ft
Overcast 4100 ft
Dew Point 60 °F
Humidity 81%
Rainfall 0.03 in
Snow Depth Not available.
6:51 AM 7:22 PM
Waxing Crescent, 9% visible
SPECI KJBR 301642Z AUTO 24020G26KT 10SM FEW022 BKN029 OVC041 19/16 A2961 RMK AO2 PK WND 22029/1600 RAE37 P0001 T01890156

Get Severe Weather Alerts

Thanks for signing up!

Be on the lookout for a verification email in your inbox.

You'll start receiving the daily forecast at 8 AM.

×

10-Day Weather Forecast

Almanac

Astronomy

Mar. 30, 2017 Rise Set
Actual Time
Civil Twilight
Nautical Twilight
Astronomical Twilight
Moon
Length of Visible Light
Length of Day
Tomorrow will be .
, % of the Moon is Illuminated

Today's Extremes

State Highs State Lows

Community

WunderPhotos

Upload Photos

1,962,540 photos uploaded!

WunderBlog® & News

Nearby

Air Quality

  Air Quality AQ Index Pollutant
Not available.

Snow Depth

Station Depth Elevation

Earthquake Activity

City Distance Mag. Time & Date
Minimum magnitude displayed is 2.5.

Earthquake Activity

City Distance Mag. Time & Date
Minimum magnitude displayed is 2.5.

Coastal Water Temperatures

Place Temperature

Stations

Nearby Weather Stations

Station Location Temp. Windchill Dew Point Humidity Wind Precip. Elev Updated Type
                   

Watches & Warnings

There are currently no watches in effect.